Time;durP1;ratioP1;P1;durP2;ratioP2;P2;SDS_P1;SDS_P2;PMS_P1;PMS_P2;Temp;Humidity;BMP_temperature;BMP_pressure;BME280_temperature;BME280_humidity;BME280_pressure;Samples;Min_cycle;Max_cycle;Signal;HPM_P1;HPM_P2
2022/07/04 00:00:04;;;;;;;11.48;5.78;;;;;;;21.30;53.33;99475.69;5063626;28;20032;-66
2022/07/04 00:02:30;;;;;;;7.70;4.85;;;;;;;21.59;53.18;99532.59;5063271;28;20039;-66
2022/07/04 00:04:56;;;;;;;7.53;5.45;;;;;;;21.56;53.25;99533.66;5063074;28;20215;-69
2022/07/04 00:07:21;;;;;;;8.88;5.53;;;;;;;21.56;53.43;99528.38;5063115;28;20024;-69
2022/07/04 00:09:47;;;;;;;9.35;5.60;;;;;;;21.46;53.85;99520.28;5062930;28;20253;-69
2022/07/04 00:12:13;;;;;;;7.18;5.07;;;;;;;21.45;54.03;99526.47;5067656;28;20059;-66
2022/07/04 00:14:38;;;;;;;7.85;5.40;;;;;;;21.41;54.35;99517.09;5083199;28;20033;-66
2022/07/04 00:17:04;;;;;;;7.20;5.20;;;;;;;21.41;54.26;99517.09;5063040;28;20068;-65
2022/07/04 00:19:30;;;;;;;8.93;5.30;;;;;;;21.37;54.48;99520.88;5062887;28;20087;-67
2022/07/04 00:21:55;;;;;;;8.75;5.32;;;;;;;21.34;54.79;99526.38;5062856;28;20070;-67
2022/07/04 00:24:21;;;;;;;7.90;5.55;;;;;;;21.28;54.59;99526.81;5062938;28;20033;-67
2022/07/04 00:26:46;;;;;;;7.47;5.68;;;;;;;21.28;54.81;99526.81;5062873;28;20044;-68
2022/07/04 00:29:12;;;;;;;9.05;6.05;;;;;;;21.24;55.14;99525.31;5062921;28;20029;-67
2022/07/04 00:31:37;;;;;;;7.55;5.07;;;;;;;21.19;55.33;99529.13;5078699;28;20028;-67
2022/07/04 00:34:03;;;;;;;5.95;5.15;;;;;;;21.19;55.06;99531.75;5071235;28;20032;-67
2022/07/04 00:36:29;;;;;;;8.38;5.30;;;;;;;21.00;55.06;99503.16;5062623;28;20032;-67
2022/07/04 00:38:54;;;;;;;7.30;5.30;;;;;;;21.18;55.23;99523.97;5062676;28;20033;-67
2022/07/04 00:41:20;;;;;;;7.47;4.85;;;;;;;21.16;55.91;99531.97;5062399;28;20088;-66
2022/07/04 00:44:03;;;;;;;8.02;5.78;;;;;;;21.15;55.69;99538.16;5062600;28;20021;-67
2022/07/04 00:46:29;;;;;;;7.43;5.13;;;;;;;21.09;55.87;99538.59;5064614;28;20252;-66
2022/07/04 00:48:55;;;;;;;7.63;5.32;;;;;;;20.97;55.54;99528.88;5062718;28;20069;-65
2022/07/04 00:51:21;;;;;;;7.75;5.68;;;;;;;20.97;56.02;99534.97;5067687;28;20368;-66
2022/07/04 00:53:47;;;;;;;10.13;5.90;;;;;;;20.97;56.31;99542.88;5080417;28;20100;-65
2022/07/04 00:56:12;;;;;;;9.40;5.25;;;;;;;20.94;56.61;99544.88;5062513;28;20029;-66
2022/07/04 00:58:38;;;;;;;10.55;5.80;;;;;;;20.91;56.67;99539.81;5062447;28;20254;-66
2022/07/04 01:01:04;;;;;;;7.38;5.68;;;;;;;20.90;56.67;99541.59;5062548;28;20106;-66
2022/07/04 01:03:29;;;;;;;8.15;6.18;;;;;;;20.90;56.98;99543.41;5062504;28;20048;-66
2022/07/04 01:05:58;;;;;;;9.43;6.47;;;;;;;20.85;57.11;99546.34;5064006;28;20048;-66
2022/07/04 01:08:24;;;;;;;9.55;5.97;;;;;;;20.84;57.28;99542.84;5082607;28;20048;-66
2022/07/04 01:10:49;;;;;;;9.55;6.10;;;;;;;20.82;57.63;99542.13;5064977;28;20036;-66
2022/07/04 01:13:22;;;;;;;8.35;6.28;;;;;;;20.75;57.48;99535.59;5062396;28;20322;-66
2022/07/04 01:15:48;;;;;;;7.70;5.80;;;;;;;20.74;57.08;99541.78;5071321;28;20112;-66
2022/07/04 01:18:14;;;;;;;9.20;6.20;;;;;;;20.71;57.41;99546.38;5078123;28;20049;-66
2022/07/04 01:20:40;;;;;;;9.90;6.10;;;;;;;20.76;57.68;99558.31;5062569;28;20087;-66
2022/07/04 01:23:06;;;;;;;9.38;6.00;;;;;;;20.73;57.98;99552.41;5062263;28;20029;-66
2022/07/04 01:25:32;;;;;;;9.57;5.45;;;;;;;20.68;57.98;99561.44;5062482;28;20252;-66
2022/07/04 01:28:02;;;;;;;9.52;6.28;;;;;;;20.69;58.22;99557.03;5062235;28;20029;-66
2022/07/04 01:30:28;;;;;;;9.18;6.28;;;;;;;20.68;58.09;99550.94;5062187;28;20071;-66
2022/07/04 01:32:54;;;;;;;13.45;5.97;;;;;;;20.68;57.96;99558.81;5062287;28;20024;-66
2022/07/04 01:35:21;;;;;;;8.95;5.85;;;;;;;20.58;58.58;99557.72;5044557;28;20036;-66
2022/07/04 01:37:46;;;;;;;7.85;5.70;;;;;;;20.60;58.84;99560.25;5062271;28;20250;-66
2022/07/04 01:40:12;;;;;;;9.95;6.90;;;;;;;20.60;58.85;99562.88;5061737;28;20025;-66
2022/07/04 01:42:39;;;;;;;7.55;6.20;;;;;;;20.51;59.17;99559.88;5061983;28;20032;-66
2022/07/04 01:45:06;;;;;;;10.88;6.25;;;;;;;20.51;59.15;99565.16;5065947;28;20025;-66
2022/07/04 01:47:32;;;;;;;9.00;6.55;;;;;;;20.50;59.40;99562.63;5065757;28;20254;-66
2022/07/04 01:49:57;;;;;;;10.98;6.18;;;;;;;20.47;59.78;99562.81;5066541;28;20027;-70
2022/07/04 01:52:23;;;;;;;7.95;5.50;;;;;;;20.36;59.35;99555.63;5065644;28;20259;-70
2022/07/04 01:54:49;;;;;;;10.48;6.28;;;;;;;20.41;59.78;99563.19;5065659;28;20059;-70
2022/07/04 01:57:14;;;;;;;9.02;6.40;;;;;;;20.42;59.92;99565.75;5065538;28;20029;-69
2022/07/04 02:02:24;;;;;;;7.13;6.03;;;;;;;20.52;59.80;99563.34;5065705;28;20092;-66
2022/07/04 02:04:50;;;;;;;9.68;6.10;;;;;;;20.51;59.82;99559.06;5082616;28;20032;-66
2022/07/04 02:07:16;;;;;;;9.70;5.97;;;;;;;20.55;60.06;99564.94;5073304;28;20021;-67
2022/07/04 02:09:42;;;;;;;9.82;6.30;;;;;;;20.59;60.27;99574.34;5065453;28;20020;-67
2022/07/04 02:14:51;;;;;;;9.80;7.60;;;;;;;20.59;60.08;99569.91;5066135;28;20037;-67
2022/07/04 02:17:17;;;;;;;10.05;7.72;;;;;;;20.63;60.14;99573.19;5067387;28;20300;-67
2022/07/04 02:19:42;;;;;;;10.02;6.90;;;;;;;20.67;59.80;99566.81;5069192;28;20059;-67
2022/07/04 02:22:08;;;;;;;12.82;7.45;;;;;;;20.70;60.53;99569.25;5076285;28;20031;-67
2022/07/04 02:24:34;;;;;;;11.75;8.05;;;;;;;20.77;60.41;99572.34;5078708;28;20314;-67
2022/07/04 02:26:59;;;;;;;9.00;7.22;;;;;;;20.77;60.61;99574.97;5064921;28;20025;-69
2022/07/04 02:29:25;;;;;;;12.82;6.70;;;;;;;20.51;60.68;99540.63;5080524;28;20372;-69
2022/07/04 02:31:51;;;;;;;8.48;6.88;;;;;;;20.65;61.13;99576.56;5064658;28;20036;-69
2022/07/04 02:34:16;;;;;;;9.45;6.43;;;;;;;20.88;60.48;99583.00;5064946;28;20032;-69
2022/07/04 02:36:42;;;;;;;9.63;6.30;;;;;;;20.89;60.50;99583.84;5064534;28;20330;-68
2022/07/04 02:39:07;;;;;;;10.48;7.00;;;;;;;20.94;60.57;99573.84;5064820;28;20040;-66
2022/07/04 02:41:33;;;;;;;12.95;8.23;;;;;;;20.97;60.92;99577.09;5064584;28;20035;-70
2022/07/04 02:43:59;;;;;;;12.27;7.85;;;;;;;20.98;60.87;99572.72;5082773;28;20028;-69
2022/07/04 02:46:25;;;;;;;9.38;6.60;;;;;;;21.03;60.81;99575.84;5059419;28;20045;-70
2022/07/04 02:48:51;;;;;;;12.48;7.25;;;;;;;21.04;60.88;99572.28;5053228;28;20044;-69
2022/07/04 02:51:16;;;;;;;9.85;7.00;;;;;;;21.10;60.91;99584.19;5064639;28;20021;-69
2022/07/04 02:53:42;;;;;;;9.77;6.65;;;;;;;21.13;60.73;99579.56;5064509;28;20029;-69
2022/07/04 02:56:08;;;;;;;11.68;7.70;;;;;;;21.18;60.77;99585.38;5063749;28;20020;-70
2022/07/04 02:58:33;;;;;;;12.68;8.73;;;;;;;21.21;60.07;99582.53;5078830;28;20048;-70
2022/07/04 03:01:00;;;;;;;14.63;9.25;;;;;;;21.22;59.87;99572.84;5074750;28;20028;-70
2022/07/04 03:03:26;;;;;;;12.15;8.98;;;;;;;21.31;59.58;99582.75;5064159;28;20262;-70
2022/07/04 03:05:52;;;;;;;13.48;8.80;;;;;;;21.40;59.83;99583.06;5046613;28;20082;-69
2022/07/04 03:08:18;;;;;;;17.10;9.23;;;;;;;21.45;59.72;99587.09;5064339;28;20043;-70
2022/07/04 03:10:44;;;;;;;15.50;9.55;;;;;;;21.49;59.28;99585.06;5064150;28;20074;-69
2022/07/04 03:13:10;;;;;;;15.85;9.00;;;;;;;21.48;59.32;99573.69;5064023;28;20037;-64
2022/07/04 03:15:35;;;;;;;12.55;8.70;;;;;;;21.61;58.61;99584.25;5064022;28;20036;-65
2022/07/04 03:18:01;;;;;;;12.88;8.52;;;;;;;21.70;59.35;99586.25;5063841;28;20039;-64
2022/07/04 03:20:26;;;;;;;11.48;9.02;;;;;;;21.78;59.39;99587.53;5064038;28;20336;-65
2022/07/04 03:22:54;;;;;;;11.50;8.02;;;;;;;21.86;59.07;99582.53;5063913;28;20067;-64
2022/07/04 03:25:21;;;;;;;10.32;7.85;;;;;;;21.98;58.58;99586.13;5075963;28;20035;-67
2022/07/04 03:27:47;;;;;;;10.73;8.32;;;;;;;22.08;58.98;99589.78;5083929;28;20024;-67
2022/07/04 03:30:12;;;;;;;13.30;8.85;;;;;;;22.07;58.98;99582.81;5083962;28;20036;-67
2022/07/04 03:32:38;;;;;;;11.48;8.27;;;;;;;22.17;58.78;99583.00;5069866;28;20017;-67
2022/07/04 03:35:05;;;;;;;13.38;7.88;;;;;;;22.22;59.07;99581.75;5082174;28;20029;-67
2022/07/04 03:37:30;;;;;;;11.55;7.85;;;;;;;22.34;58.38;99595.03;5069874;28;20041;-67
2022/07/04 03:39:56;;;;;;;11.52;8.18;;;;;;;22.41;58.27;99585.72;5063636;28;20040;-65
2022/07/04 03:42:22;;;;;;;10.30;7.43;;;;;;;22.44;58.33;99589.94;5063625;28;20029;-69
2022/07/04 03:44:48;;;;;;;12.98;7.43;;;;;;;22.54;58.05;99597.06;5063627;28;20036;-66
2022/07/04 03:47:13;;;;;;;10.10;7.13;;;;;;;22.61;58.23;99588.72;5063227;28;20084;-67
2022/07/04 03:49:39;;;;;;;12.30;7.68;;;;;;;22.61;58.47;99583.44;5063502;28;20032;-66
2022/07/04 03:52:05;;;;;;;12.45;7.13;;;;;;;22.69;57.74;99589.81;5063425;28;20043;-67
2022/07/04 03:54:30;;;;;;;8.63;7.72;;;;;;;22.81;57.71;99597.81;5063105;28;20031;-70
2022/07/04 03:56:56;;;;;;;12.68;7.40;;;;;;;22.82;57.35;99588.94;5063614;28;20021;-70
2022/07/04 03:59:21;;;;;;;9.60;6.72;;;;;;;22.96;57.76;99595.81;5083451;28;20036;-70
2022/07/04 04:01:47;;;;;;;8.95;7.03;;;;;;;23.03;57.05;99602.31;5067386;28;20059;-69
2022/07/04 04:06:57;;;;;;;7.72;6.75;;;;;;;23.22;56.28;99596.53;5073586;28;20043;-68
2022/07/04 04:09:24;;;;;;;7.45;6.78;;;;;;;23.26;56.21;99600.63;5063181;28;20029;-67
2022/07/04 04:11:50;;;;;;;8.30;6.32;;;;;;;23.38;55.87;99601.50;5063139;28;20028;-68
2022/07/04 04:14:16;;;;;;;9.88;6.45;;;;;;;23.44;55.94;99596.59;5062956;28;20078;-68
2022/07/04 04:16:42;;;;;;;10.45;6.93;;;;;;;23.48;56.49;99597.19;5062881;28;20256;-66
2022/07/04 04:19:11;;;;;;;8.82;5.95;;;;;;;23.53;56.00;99605.59;5062996;28;20032;-66
2022/07/04 04:21:37;;;;;;;8.38;6.70;;;;;;;23.57;56.76;99603.56;5045090;28;20312;-67
2022/07/04 04:24:03;;;;;;;12.93;7.15;;;;;;;23.52;56.75;99593.34;5063115;28;20025;-67
2022/07/04 04:26:29;;;;;;;12.82;6.50;;;;;;;23.70;56.45;99604.31;5062963;28;20093;-66
2022/07/04 04:28:55;;;;;;;9.63;5.97;;;;;;;23.73;56.60;99600.59;5062453;28;20040;-67
2022/07/04 04:31:21;;;;;;;10.18;6.82;;;;;;;23.69;56.90;99593.84;5062684;28;20035;-67
2022/07/04 04:33:46;;;;;;;7.25;5.78;;;;;;;23.74;57.08;99602.25;5062527;28;20032;-66
2022/07/04 04:36:12;;;;;;;9.90;6.72;;;;;;;23.79;57.33;99600.09;5062488;28;20039;-66
2022/07/04 04:38:38;;;;;;;10.10;6.78;;;;;;;23.80;57.23;99596.50;5062624;28;20063;-66
2022/07/04 04:41:03;;;;;;;10.70;6.30;;;;;;;23.93;57.32;99599.88;5062808;28;20029;-67
2022/07/04 04:43:29;;;;;;;7.93;6.30;;;;;;;24.01;56.57;99601.09;5075337;28;20052;-70
2022/07/04 04:45:54;;;;;;;8.25;6.60;;;;;;;24.04;57.15;99604.34;5066312;28;20055;-71
2022/07/04 04:48:20;;;;;;;7.93;6.43;;;;;;;24.13;57.21;99602.75;5028550;28;20051;-70
2022/07/04 04:50:46;;;;;;;9.45;6.88;;;;;;;24.16;56.56;99584.00;5062554;28;20037;-69
2022/07/04 04:53:12;;;;;;;9.00;6.25;;;;;;;24.29;55.93;99599.72;5062262;28;20086;-70
2022/07/04 04:55:38;;;;;;;7.63;5.72;;;;;;;24.28;55.54;99596.25;5062204;28;20033;-69
2022/07/04 04:58:03;;;;;;;7.18;6.07;;;;;;;24.38;55.18;99606.09;5062258;28;20071;-69
2022/07/04 05:00:29;;;;;;;7.68;6.00;;;;;;;24.49;55.91;99600.75;5062316;28;20078;-70
2022/07/04 05:02:54;;;;;;;8.55;5.90;;;;;;;24.53;55.12;99604.00;5062219;28;20025;-70
2022/07/04 05:05:20;;;;;;;6.28;5.68;;;;;;;24.64;55.00;99599.53;5082464;28;20036;-70
2022/07/04 05:07:45;;;;;;;9.55;6.50;;;;;;;24.71;54.64;99602.53;5082213;28;20028;-69
2022/07/04 05:10:11;;;;;;;6.45;5.85;;;;;;;24.75;53.98;99593.34;5072110;28;20025;-71
2022/07/04 05:12:36;;;;;;;9.55;6.10;;;;;;;24.93;53.62;99603.41;5062213;28;20244;-70
2022/07/04 05:15:03;;;;;;;7.93;6.18;;;;;;;25.08;53.58;99602.16;5044415;28;20036;-70
2022/07/04 05:17:29;;;;;;;6.35;5.70;;;;;;;25.22;52.97;99603.63;5062468;28;20047;-67
2022/07/04 05:19:55;;;;;;;9.13;5.82;;;;;;;25.48;53.04;99603.25;5065556;28;20021;-67
2022/07/04 05:22:21;;;;;;;10.00;6.10;;;;;;;25.55;52.91;99606.22;5077796;28;20023;-67
2022/07/04 05:24:46;;;;;;;11.20;6.68;;;;;;;25.71;52.40;99611.03;5061072;28;20044;-66
2022/07/04 05:27:12;;;;;;;7.78;6.10;;;;;;;25.78;52.67;99614.84;5066232;28;20029;-69
2022/07/04 05:29:37;;;;;;;6.70;5.95;;;;;;;25.90;51.80;99611.13;5066053;28;20127;-70
2022/07/04 05:32:04;;;;;;;12.38;5.95;;;;;;;25.95;52.07;99614.25;5065938;28;20218;-69
2022/07/04 05:34:30;;;;;;;8.07;5.90;;;;;;;25.96;52.53;99609.75;5066146;28;20257;-70
2022/07/04 05:36:56;;;;;;;8.98;5.60;;;;;;;26.17;51.42;99601.78;5073707;28;20051;-70
2022/07/04 05:39:22;;;;;;;11.52;5.45;;;;;;;26.20;51.21;99590.88;5069403;28;20050;-66
2022/07/04 05:41:47;;;;;;;6.75;5.30;;;;;;;26.32;50.76;99600.41;5048203;28;20021;-66
2022/07/04 05:44:13;;;;;;;7.25;5.43;;;;;;;26.35;50.90;99601.94;5065597;28;20112;-67
2022/07/04 05:46:38;;;;;;;6.60;5.75;;;;;;;26.39;50.70;99598.03;5065539;28;20059;-67
2022/07/04 05:49:04;;;;;;;9.93;5.75;;;;;;;26.42;50.84;99599.56;5065793;28;20028;-67
2022/07/04 05:51:29;;;;;;;6.53;5.93;;;;;;;26.43;51.17;99598.59;5065466;28;20028;-67
2022/07/04 05:53:55;;;;;;;5.97;5.40;;;;;;;26.56;50.39;99598.34;5065433;28;20222;-67
2022/07/04 05:56:20;;;;;;;6.30;5.72;;;;;;;26.63;49.75;99600.28;5047860;28;20033;-67
2022/07/04 05:58:46;;;;;;;8.40;5.70;;;;;;;26.68;50.41;99595.44;5080183;28;20032;-67
2022/07/04 06:01:12;;;;;;;6.03;5.53;;;;;;;26.68;50.22;99599.91;5075230;28;20040;-68
2022/07/04 06:03:38;;;;;;;6.47;5.70;;;;;;;26.70;50.07;99606.75;5065336;28;20025;-68
2022/07/04 06:06:04;;;;;;;5.95;5.35;;;;;;;26.77;49.91;99593.78;5065633;28;20028;-67
2022/07/04 06:08:30;;;;;;;6.30;5.25;;;;;;;26.76;49.91;99588.59;5065344;28;20175;-68
2022/07/04 06:10:56;;;;;;;7.28;5.03;;;;;;;26.89;49.51;99594.47;5065445;28;20031;-69
2022/07/04 06:13:22;;;;;;;6.80;5.07;;;;;;;26.91;48.21;99599.63;5073534;28;20025;-68
2022/07/04 06:15:48;;;;;;;9.23;5.40;;;;;;;27.06;49.20;99598.22;5064982;28;20222;-69
2022/07/04 06:18:15;;;;;;;5.78;5.03;;;;;;;27.09;48.70;99600.59;5065024;28;20043;-69
2022/07/04 06:20:41;;;;;;;8.82;4.97;;;;;;;26.99;47.49;99594.47;5065012;28;20048;-67
2022/07/04 06:23:07;;;;;;;6.15;4.55;;;;;;;27.10;48.20;99599.63;5064856;28;20047;-68
2022/07/04 06:25:33;;;;;;;5.53;4.78;;;;;;;27.21;47.70;99596.81;5064598;28;20025;-68
2022/07/04 06:28:00;;;;;;;7.03;4.82;;;;;;;27.27;47.07;99606.03;5064865;28;20070;-68
2022/07/04 06:30:26;;;;;;;8.25;5.00;;;;;;;27.33;47.10;99600.13;5063962;28;20025;-69
2022/07/04 06:32:56;;;;;;;6.00;4.90;;;;;;;27.36;46.87;99597.25;5064438;28;20025;-68
2022/07/04 06:35:45;;;;;;;5.60;4.78;;;;;;;27.26;46.78;99585.75;5064529;28;20025;-67
2022/07/04 06:38:13;;;;;;;7.63;4.80;;;;;;;27.48;46.17;99591.78;5064699;28;20271;-68
2022/07/04 06:40:39;;;;;;;5.00;4.50;;;;;;;27.52;46.24;99590.47;5064705;28;20037;-68
2022/07/04 06:43:05;;;;;;;8.55;5.05;;;;;;;27.53;46.29;99595.69;5073269;28;20339;-69
2022/07/04 06:45:33;;;;;;;10.18;4.95;;;;;;;27.39;47.35;99588.13;5076361;28;20024;-68
2022/07/04 06:47:59;;;;;;;7.00;5.03;;;;;;;27.42;45.72;99601.16;5064422;28;20151;-68
2022/07/04 06:50:25;;;;;;;7.05;5.05;;;;;;;27.56;45.92;99605.16;5064478;28;20036;-69
2022/07/04 06:52:51;;;;;;;6.07;5.40;;;;;;;27.73;45.44;99607.09;5064135;28;20052;-67
2022/07/04 06:55:16;;;;;;;6.55;4.90;;;;;;;27.79;45.21;99594.16;5064296;28;20222;-67
2022/07/04 06:57:42;;;;;;;5.75;5.25;;;;;;;27.62;46.04;99595.75;5069733;28;20032;-67
2022/07/04 07:00:08;;;;;;;6.32;4.80;;;;;;;27.69;45.57;99596.84;5084460;28;20285;-68
2022/07/04 07:02:35;;;;;;;5.15;4.57;;;;;;;27.65;43.87;99591.00;5084253;28;20364;-68
2022/07/04 07:05:01;;;;;;;5.43;4.95;;;;;;;27.86;44.02;99589.94;5073739;28;20052;-68
2022/07/04 07:07:28;;;;;;;8.45;5.28;;;;;;;27.84;43.73;99592.75;5064300;28;20028;-67
2022/07/04 07:09:54;;;;;;;5.47;4.88;;;;;;;27.83;43.28;99595.56;5064305;28;20094;-68
2022/07/04 07:12:21;;;;;;;6.00;5.45;;;;;;;27.89;42.23;99589.63;5064298;28;20020;-68
2022/07/04 07:14:48;;;;;;;5.18;4.68;;;;;;;28.07;42.92;99592.38;5064255;28;20028;-67
2022/07/04 07:17:15;;;;;;;5.50;5.00;;;;;;;27.80;43.00;99590.53;5063779;28;20021;-68
2022/07/04 07:19:40;;;;;;;7.35;5.30;;;;;;;28.04;43.52;99584.69;5064129;28;20033;-68
2022/07/04 07:22:06;;;;;;;5.13;4.63;;;;;;;28.15;43.69;99584.50;5063881;28;20051;-68
2022/07/04 07:24:31;;;;;;;6.07;5.57;;;;;;;28.25;43.88;99584.44;5064003;28;20040;-68
2022/07/04 07:26:57;;;;;;;5.47;4.97;;;;;;;28.35;42.16;99593.19;5063410;28;20033;-68
2022/07/04 07:29:23;;;;;;;5.90;5.28;;;;;;;28.23;41.40;99587.25;5063722;28;20086;-67
2022/07/04 07:31:49;;;;;;;6.45;5.68;;;;;;;28.39;41.68;99588.44;5063805;28;20092;-68
2022/07/04 07:34:15;;;;;;;6.43;5.30;;;;;;;28.40;40.20;99595.41;5073417;28;20055;-71
2022/07/04 07:36:41;;;;;;;5.30;4.80;;;;;;;28.41;41.73;99581.94;5078559;28;20269;-70
2022/07/04 07:39:06;;;;;;;6.53;4.85;;;;;;;28.57;42.32;99588.41;5063381;28;20360;-70
2022/07/04 07:41:32;;;;;;;7.57;5.60;;;;;;;28.55;41.09;99579.75;5063070;28;20265;-70
2022/07/04 07:43:57;;;;;;;6.22;5.72;;;;;;;28.52;41.81;99582.72;5062980;28;20032;-70
2022/07/04 07:46:23;;;;;;;5.85;5.35;;;;;;;28.51;41.66;99587.19;5063238;28;20031;-70
2022/07/04 07:48:48;;;;;;;7.05;5.90;;;;;;;28.48;41.68;99579.50;5063319;28;20029;-70
2022/07/04 07:51:16;;;;;;;8.02;5.43;;;;;;;28.62;42.07;99575.53;5078759;28;20029;-69
2022/07/04 07:53:42;;;;;;;8.93;6.25;;;;;;;28.68;42.04;99582.91;5062619;28;20286;-67
2022/07/04 07:56:08;;;;;;;6.28;5.78;;;;;;;28.49;41.61;99575.00;5062822;28;20100;-68
2022/07/04 07:58:33;;;;;;;8.05;6.82;;;;;;;28.55;41.31;99577.09;5061799;28;20096;-71
2022/07/04 08:01:01;;;;;;;7.53;6.25;;;;;;;28.44;42.02;99567.47;5062254;28;20036;-72
2022/07/04 08:06:12;;;;;;;7.90;6.43;;;;;;;28.79;42.29;99579.16;5060423;28;20032;-72
2022/07/04 08:08:38;;;;;;;6.32;5.80;;;;;;;28.94;42.01;99587.44;5062617;28;20053;-69
2022/07/04 08:11:04;;;;;;;7.50;6.78;;;;;;;29.05;41.91;99576.53;5064068;28;20084;-70
2022/07/04 08:13:30;;;;;;;7.70;6.65;;;;;;;28.86;40.69;99576.72;5062227;28;20024;-70
2022/07/04 08:15:56;;;;;;;7.53;6.82;;;;;;;29.12;41.56;99579.44;5062502;28;20013;-70
2022/07/04 08:18:22;;;;;;;7.88;7.15;;;;;;;29.17;41.70;99578.97;5062500;28;20055;-71
2022/07/04 08:20:49;;;;;;;7.65;6.95;;;;;;;29.22;41.78;99582.00;5062778;28;20060;-70
2022/07/04 08:23:15;;;;;;;7.43;6.75;;;;;;;29.28;41.28;99586.75;5044558;28;20183;-69
2022/07/04 08:25:41;;;;;;;8.57;7.75;;;;;;;29.14;40.41;99589.94;5044929;28;20047;-71
2022/07/04 08:28:06;;;;;;;8.07;7.28;;;;;;;29.31;41.16;99580.25;5044654;28;20021;-72
2022/07/04 08:30:32;;;;;;;7.97;7.28;;;;;;;29.35;41.42;99582.44;5062352;28;20025;-72
2022/07/04 08:32:58;;;;;;;9.98;7.53;;;;;;;29.31;41.54;99575.75;5062514;28;20328;-72
2022/07/04 08:35:23;;;;;;;10.60;7.28;;;;;;;29.41;41.88;99580.97;5061934;28;20043;-70
2022/07/04 08:37:53;;;;;;;8.70;7.28;;;;;;;29.53;41.51;99595.75;5061283;28;20060;-71
2022/07/04 08:40:23;;;;;;;8.48;7.13;;;;;;;29.37;41.43;99552.94;5061564;28;20047;-71
2022/07/04 08:42:49;;;;;;;10.73;7.70;;;;;;;29.55;41.07;99591.06;5060366;28;20039;-71
2022/07/04 08:45:17;;;;;;;9.00;7.18;;;;;;;29.52;40.29;99571.88;5061279;28;20327;-72
2022/07/04 08:47:43;;;;;;;7.90;7.20;;;;;;;29.38;41.10;99544.78;5062213;28;20020;-71
2022/07/04 08:50:11;;;;;;;7.78;7.10;;;;;;;29.52;41.09;99577.22;5062011;28;20074;-70
2022/07/04 08:52:42;;;;;;;7.68;6.97;;;;;;;29.66;41.08;99583.78;5044287;28;20029;-71
2022/07/04 09:00:43;;;;;;;8.10;7.28;;;;;;;29.71;40.80;99568.94;5064717;28;20075;-69
2022/07/04 09:03:09;;;;;;;8.38;7.68;;;;;;;29.74;40.12;99578.47;5048476;28;20024;-70
2022/07/04 09:05:35;;;;;;;7.72;6.90;;;;;;;29.74;40.37;99563.31;5065344;28;20029;-71
2022/07/04 09:08:03;;;;;;;7.57;6.78;;;;;;;29.70;41.45;99531.75;5067148;28;20317;-69
2022/07/04 09:10:29;;;;;;;9.38;7.40;;;;;;;29.66;40.02;99562.41;5066957;28;20092;-70
2022/07/04 09:12:55;;;;;;;7.70;6.93;;;;;;;29.60;40.71;99580.75;5048246;28;20013;-66
2022/07/04 09:15:21;;;;;;;8.45;7.63;;;;;;;29.71;41.14;99576.97;5065699;28;20049;-69
2022/07/04 09:17:47;;;;;;;7.32;6.57;;;;;;;29.60;41.26;99571.91;5066306;28;20092;-73
2022/07/04 09:20:19;;;;;;;7.85;7.13;;;;;;;29.56;40.32;99559.91;5067779;28;20021;-66
2022/07/04 09:22:46;;;;;;;8.57;6.68;;;;;;;29.56;41.42;99566.06;5066911;28;20039;-68
2022/07/04 09:25:14;;;;;;;6.82;6.13;;;;;;;29.86;41.59;99565.69;5074595;28;20040;-67
2022/07/04 09:27:47;;;;;;;8.48;6.50;;;;;;;29.64;42.16;99517.19;5068090;28;20043;-65
2022/07/04 09:30:25;;;;;;;11.02;7.38;;;;;;;29.98;39.61;99553.75;5046659;28;20065;-69
2022/07/04 09:32:59;;;;;;;6.78;6.05;;;;;;;29.56;38.60;99546.56;5066386;28;20028;-66
2022/07/04 09:35:27;;;;;;;7.65;6.35;;;;;;;29.77;40.95;99572.81;5048222;28;20029;-66
2022/07/04 09:37:54;;;;;;;7.05;6.20;;;;;;;29.78;40.52;99542.47;5066174;28;20333;-66
2022/07/04 09:40:33;;;;;;;8.48;6.63;;;;;;;30.00;39.55;99565.13;5065955;28;20033;-66
2022/07/04 09:43:01;;;;;;;8.75;5.88;;;;;;;29.97;40.06;99554.72;5065847;28;20029;-67
2022/07/04 09:45:28;;;;;;;6.78;6.18;;;;;;;29.70;39.12;99563.78;5065412;28;20060;-67
2022/07/04 09:47:59;;;;;;;6.95;6.25;;;;;;;29.39;38.20;99540.28;5047868;28;20028;-69
2022/07/04 09:50:27;;;;;;;7.47;6.18;;;;;;;29.52;39.16;99515.84;5084121;28;20252;-69
2022/07/04 09:53:00;;;;;;;7.00;6.30;;;;;;;29.84;38.51;99549.84;5071589;28;20096;-69
2022/07/04 09:55:35;;;;;;;8.32;6.15;;;;;;;29.83;38.80;99548.19;5047651;28;20028;-69
2022/07/04 09:58:03;;;;;;;6.53;5.93;;;;;;;29.46;38.57;99517.31;5065552;28;20349;-69
2022/07/04 10:00:31;;;;;;;6.82;6.10;;;;;;;29.68;38.18;99539.91;5067721;28;20024;-68
2022/07/04 10:03:15;;;;;;;6.53;5.68;;;;;;;29.67;39.13;99540.91;5046172;28;20380;-68
2022/07/04 10:05:40;;;;;;;6.15;5.63;;;;;;;29.66;39.71;99543.72;5051333;28;20028;-68
2022/07/04 10:08:06;;;;;;;6.72;6.10;;;;;;;29.71;40.23;99544.09;5065337;28;20036;-67
2022/07/04 10:10:34;;;;;;;6.28;5.78;;;;;;;29.61;39.11;99491.66;5065407;28;20255;-67
2022/07/04 10:13:05;;;;;;;6.38;5.85;;;;;;;29.91;38.99;99523.34;5047490;28;20225;-68
2022/07/04 10:15:33;;;;;;;6.50;5.82;;;;;;;29.61;38.31;99530.88;5065066;28;20068;-69
2022/07/04 10:17:59;;;;;;;7.07;6.28;;;;;;;29.59;38.70;99530.22;5047694;28;20029;-69
2022/07/04 10:20:25;;;;;;;6.40;5.80;;;;;;;29.87;38.74;99519.31;5064950;28;20238;-69
2022/07/04 10:22:51;;;;;;;33.60;7.95;;;;;;;29.94;38.80;99525.69;5047534;28;20085;-68
2022/07/04 10:25:17;;;;;;;6.18;5.68;;;;;;;29.94;37.21;99523.88;5073436;28;20020;-69
2022/07/04 10:27:44;;;;;;;7.97;6.30;;;;;;;29.95;38.06;99503.31;5079953;28;20036;-69
2022/07/04 10:30:14;;;;;;;6.43;5.82;;;;;;;30.02;38.39;99519.53;5065075;28;20025;-69
2022/07/04 10:32:45;;;;;;;6.20;5.70;;;;;;;30.11;38.79;99522.06;5065167;28;20036;-68
2022/07/04 10:35:15;;;;;;;10.07;6.43;;;;;;;30.08;37.45;99519.72;5080016;28;20086;-69
2022/07/04 10:38:07;;;;;;;7.07;6.47;;;;;;;30.10;37.33;99512.38;5064613;28;20048;-67
2022/07/04 10:40:52;;;;;;;7.72;6.20;;;;;;;30.01;37.09;99510.69;5064891;28;20040;-66
2022/07/04 10:43:43;;;;;;;6.82;6.18;;;;;;;29.85;37.42;99506.13;5064816;28;20064;-66
2022/07/04 10:46:19;;;;;;;6.88;6.18;;;;;;;29.76;37.13;99507.91;5064535;28;20233;-66
2022/07/04 10:48:51;;;;;;;7.40;6.65;;;;;;;29.88;38.23;99515.66;5068855;28;20040;-66
2022/07/04 10:51:31;;;;;;;;;;;;;;;29.83;38.37;99510.81;5053626;28;20043;-67
2022/07/04 10:53:58;;;;;;;6.75;6.07;;;;;;;29.84;38.18;99503.63;5064833;28;19984;-67
2022/07/04 10:56:27;;;;;;;7.43;6.28;;;;;;;30.01;37.73;99505.34;5044319;28;20084;-67
2022/07/04 10:58:55;;;;;;;6.57;6.00;;;;;;;29.95;38.82;99500.66;5064262;28;20067;-66
2022/07/04 11:01:21;;;;;;;7.03;6.32;;;;;;;29.72;38.42;99503.06;5064065;28;20233;-66
2022/07/04 11:03:50;;;;;;;8.45;6.13;;;;;;;29.79;38.67;99499.56;5064317;28;20035;-67
2022/07/04 11:06:42;;;;;;;7.40;6.65;;;;;;;29.52;39.90;99502.50;5064044;28;20065;-65
2022/07/04 11:09:17;;;;;;;6.63;6.13;;;;;;;29.65;38.83;99491.38;5064158;28;20092;-66
2022/07/04 11:12:04;;;;;;;6.60;6.00;;;;;;;29.44;38.02;99492.59;5029499;28;20451;-66
2022/07/04 11:14:40;;;;;;;7.43;6.45;;;;;;;29.39;38.36;99495.75;5082424;28;20028;-67
2022/07/04 11:17:20;;;;;;;7.25;6.55;;;;;;;29.33;38.47;99499.06;5068723;28;20067;-66
2022/07/04 11:19:46;;;;;;;9.63;6.32;;;;;;;29.41;38.29;99491.06;5046165;28;20084;-66
2022/07/04 11:22:22;;;;;;;6.88;6.20;;;;;;;29.48;38.78;99479.78;5063944;28;20028;-66
2022/07/04 11:24:48;;;;;;;7.82;7.03;;;;;;;29.57;39.45;99489.47;5063997;28;20029;-66
2022/07/04 11:27:14;;;;;;;7.70;6.18;;;;;;;29.51;37.93;99490.13;5063993;28;20092;-66
2022/07/04 11:29:51;;;;;;;7.13;6.32;;;;;;;29.34;37.35;99447.34;5063804;28;20211;-67
2022/07/04 11:32:18;;;;;;;6.80;6.20;;;;;;;29.47;36.93;99483.44;5064050;28;20025;-66
2022/07/04 11:34:44;;;;;;;6.38;5.88;;;;;;;29.34;37.22;99479.38;5063556;28;20048;-66
2022/07/04 11:37:10;;;;;;;6.55;5.93;;;;;;;29.49;37.70;99481.44;5063914;28;20060;-66
2022/07/04 11:39:35;;;;;;;6.68;6.00;;;;;;;29.46;38.02;99487.94;5063401;28;20051;-66
2022/07/04 11:47:36;;;;;;;6.25;5.65;;;;;;;29.64;37.00;99473.66;5061903;28;20032;-67
2022/07/04 11:50:05;;;;;;;6.37;5.73;;;;;;;29.33;38.15;99428.84;5063391;28;20037;-67
2022/07/04 11:52:42;;;;;;;5.70;5.30;;;;;;;29.71;39.12;99461.34;5063427;28;20044;-67